METAR Data
IDs: Format: Raw Decoded Include TAF

Data at: 1712 UTC 03 Dec 2021

SBSJ 031700Z 15010KT 110V170 9999 SCT035 BKN050 25/15 Q1014